Time;durP1;ratioP1;P1;durP2;ratioP2;P2;SDS_P1;SDS_P2;PMS_P1;PMS_P2;Temp;Humidity;BMP_temperature;BMP_pressure;BME280_temperature;BME280_humidity;BME280_pressure;Samples;Min_cycle;Max_cycle;Signal;HPM_P1;HPM_P2
2022/10/05 00:00:11;;;;;;;12.13;6.85;;;;;;;;;;5072278;28;20119;-66
2022/10/05 00:02:37;;;;;;;10.05;7.30;;;;;;;;;;5072098;28;20329;-67
2022/10/05 00:05:14;;;;;;;11.90;6.90;;;;;;;;;;5071326;28;20182;-67
2022/10/05 00:07:40;;;;;;;12.30;7.25;;;;;;;;;;5066018;28;20036;-67
2022/10/05 00:10:09;;;;;;;11.10;6.72;;;;;;;;;;5068665;28;20037;-66
2022/10/05 00:12:35;;;;;;;12.15;7.20;;;;;;;;;;5061387;28;20043;-67
2022/10/05 00:15:02;;;;;;;12.07;6.95;;;;;;;;;;5062463;28;20036;-66
2022/10/05 00:17:29;;;;;;;11.73;6.63;;;;;;;;;;5081502;28;20038;-66
2022/10/05 00:19:55;;;;;;;12.00;7.00;;;;;;;;;;5071556;28;20041;-66
2022/10/05 00:22:22;;;;;;;10.55;6.93;;;;;;;;;;5070798;28;20047;-66
2022/10/05 00:24:49;;;;;;;9.93;6.75;;;;;;;;;;5073132;28;20036;-66
2022/10/05 00:27:24;;;;;;;11.50;7.18;;;;;;;;;;5073289;28;20044;-65
2022/10/05 00:29:51;;;;;;;10.90;6.95;;;;;;;;;;5070604;28;20058;-66
2022/10/05 00:32:17;;;;;;;10.25;6.75;;;;;;;;;;5070723;28;20487;-66
2022/10/05 00:34:43;;;;;;;9.52;6.60;;;;;;;;;;5072206;28;20044;-66
2022/10/05 00:37:10;;;;;;;12.25;6.38;;;;;;;;;;5079881;28;20040;-66
2022/10/05 00:39:37;;;;;;;9.55;5.88;;;;;;;;;;5069846;28;20510;-66
2022/10/05 00:42:09;;;;;;;9.32;6.40;;;;;;;;;;5070576;28;20087;-66
2022/10/05 00:44:48;;;;;;;9.20;6.20;;;;;;;;;;5067488;28;20036;-66
2022/10/05 00:47:14;;;;;;;9.40;6.28;;;;;;;;;;5080266;28;20059;-67
2022/10/05 00:50:08;;;;;;;9.20;6.50;;;;;;;;;;5067856;28;20041;-67
2022/10/05 00:52:40;;;;;;;9.48;6.30;;;;;;;;;;5069419;28;20040;-66
2022/10/05 00:55:09;;;;;;;9.75;6.07;;;;;;;;;;5071686;28;20036;-66
2022/10/05 00:58:00;;;;;;;9.23;5.72;;;;;;;;;;5052194;28;20509;-66
2022/10/05 01:00:27;;;;;;;8.70;6.10;;;;;;;;;;5069873;28;20040;-66
2022/10/05 01:02:53;;;;;;;10.63;6.75;;;;;;;;;;5069284;28;20082;-66
2022/10/05 01:05:35;;;;;;;9.15;6.40;;;;;;;;;;5062712;28;20420;-66
2022/10/05 01:08:19;;;;;;;10.85;6.68;;;;;;;;;;5078935;28;20117;-66
2022/10/05 01:10:54;;;;;;;11.65;6.70;;;;;;;;;;5070855;28;20119;-66
2022/10/05 01:13:27;;;;;;;12.10;7.00;;;;;;;;;;5068059;28;20115;-66
2022/10/05 01:16:03;;;;;;;11.38;7.70;;;;;;;;;;5067699;28;20074;-66
2022/10/05 01:18:44;;;;;;;13.00;6.95;;;;;;;;;;5071208;28;20055;-66
2022/10/05 01:21:23;;;;;;;13.02;7.97;;;;;;;;;;5069862;28;20379;-66
2022/10/05 01:24:00;;;;;;;12.55;7.95;;;;;;;;;;5070644;28;20510;-66
2022/10/05 01:26:45;;;;;;;11.77;7.63;;;;;;;;;;5073184;28;20075;-66
2022/10/05 01:29:11;;;;;;;12.75;8.02;;;;;;;;;;5073520;28;20522;-67
2022/10/05 01:31:40;;;;;;;15.25;8.50;;;;;;;;;;5068430;28;20041;-66
2022/10/05 01:34:06;;;;;;;15.05;8.75;;;;;;;;;;5070520;28;20033;-66
2022/10/05 01:36:38;;;;;;;13.93;8.05;;;;;;;;;;5066188;28;20111;-66
2022/10/05 01:39:22;;;;;;;13.15;7.97;;;;;;;;;;5083117;28;20486;-66
2022/10/05 01:41:54;;;;;;;13.35;8.07;;;;;;;;;;5070638;28;20511;-66
2022/10/05 01:44:23;;;;;;;15.20;8.77;;;;;;;;;;5083183;28;20032;-66
2022/10/05 01:46:55;;;;;;;16.33;8.52;;;;;;;;;;5075291;28;20120;-67
2022/10/05 01:49:34;;;;;;;13.70;8.60;;;;;;;;;;5083457;28;20032;-66
2022/10/05 01:52:06;;;;;;;14.48;9.20;;;;;;;;;;5069174;28;20044;-66
2022/10/05 01:54:35;;;;;;;15.73;9.70;;;;;;;;;;5069964;28;20119;-67
2022/10/05 01:57:04;;;;;;;14.25;8.85;;;;;;;;;;5065046;28;20432;-67
2022/10/05 01:59:45;;;;;;;15.77;8.70;;;;;;;;;;5067774;28;20033;-67
2022/10/05 02:02:14;;;;;;;12.88;8.07;;;;;;;;;;5062369;28;20033;-66
2022/10/05 02:05:03;;;;;;;16.48;8.57;;;;;;;;;;5067277;28;21174;-67
2022/10/05 02:07:36;;;;;;;12.35;8.50;;;;;;;;;;5065396;28;20112;-66
2022/10/05 02:10:17;;;;;;;14.15;8.00;;;;;;;;;;5069825;28;20131;-67
2022/10/05 02:12:44;;;;;;;11.18;8.63;;;;;;;;;;5069239;28;20043;-67
2022/10/05 02:15:12;;;;;;;17.55;8.30;;;;;;;;;;5069648;28;20040;-67
2022/10/05 02:17:41;;;;;;;13.48;8.15;;;;;;;;;;5074636;28;20032;-67
2022/10/05 02:20:08;;;;;;;12.82;7.72;;;;;;;;;;5069234;28;20040;-66
2022/10/05 02:22:43;;;;;;;14.95;7.70;;;;;;;;;;5069984;28;20048;-67
2022/10/05 02:25:12;;;;;;;11.05;7.20;;;;;;;;;;5065285;28;20044;-66
2022/10/05 02:27:43;;;;;;;11.95;7.53;;;;;;;;;;5078572;28;20502;-66
2022/10/05 02:30:09;;;;;;;12.95;7.38;;;;;;;;;;5069706;28;20687;-66
2022/10/05 02:32:56;;;;;;;12.07;7.82;;;;;;;;;;5069509;28;20051;-66
2022/10/05 02:35:22;;;;;;;11.90;7.43;;;;;;;;;;5068431;28;20498;-66
2022/10/05 02:37:53;;;;;;;12.60;7.40;;;;;;;;;;5076462;28;20029;-66
2022/10/05 02:40:26;;;;;;;11.23;7.68;;;;;;;;;;5067132;28;20032;-66
2022/10/05 02:42:55;;;;;;;15.02;8.13;;;;;;;;;;5070303;28;20047;-67
2022/10/05 02:45:25;;;;;;;14.15;7.55;;;;;;;;;;5069955;28;20444;-67
2022/10/05 02:47:51;;;;;;;10.27;7.05;;;;;;;;;;5072723;28;20044;-67
2022/10/05 02:50:26;;;;;;;13.68;7.88;;;;;;;;;;5068495;28;20135;-67
2022/10/05 02:52:58;;;;;;;11.45;7.47;;;;;;;;;;5067747;28;20058;-67
2022/10/05 02:55:24;;;;;;;12.13;7.20;;;;;;;;;;5067833;28;20505;-66
2022/10/05 02:57:56;;;;;;;12.52;6.93;;;;;;;;;;5079278;28;20041;-67
2022/10/05 03:00:23;;;;;;;11.18;7.35;;;;;;;;;;5068271;28;20040;-67
2022/10/05 03:02:55;;;;;;;14.18;6.55;;;;;;;;;;5069912;28;20503;-67
2022/10/05 03:05:24;;;;;;;11.35;6.70;;;;;;;;;;5071758;28;20410;-67
2022/10/05 03:07:57;;;;;;;9.68;7.13;;;;;;;;;;5080701;28;20047;-67
2022/10/05 03:10:32;;;;;;;12.00;6.97;;;;;;;;;;5087412;28;20046;-67
2022/10/05 03:13:08;;;;;;;10.85;7.25;;;;;;;;;;5072069;28;20490;-68
2022/10/05 03:15:52;;;;;;;12.07;6.53;;;;;;;;;;5065130;28;20043;-67
2022/10/05 03:18:37;;;;;;;11.75;6.90;;;;;;;;;;5081431;28;20048;-67
2022/10/05 03:21:09;;;;;;;14.15;6.97;;;;;;;;;;5079582;28;20111;-67
2022/10/05 03:23:52;;;;;;;12.25;7.25;;;;;;;;;;5072792;28;20047;-67
2022/10/05 03:26:24;;;;;;;12.68;6.88;;;;;;;;;;5074667;28;20525;-67
2022/10/05 03:29:13;;;;;;;11.27;6.95;;;;;;;;;;5078730;28;20406;-66
2022/10/05 03:32:05;;;;;;;11.32;7.72;;;;;;;;;;5060794;28;20049;-67
2022/10/05 03:34:39;;;;;;;12.13;8.02;;;;;;;;;;5071063;28;20047;-68
2022/10/05 03:37:13;;;;;;;12.70;7.35;;;;;;;;;;5081102;28;20489;-67
2022/10/05 03:39:44;;;;;;;14.75;7.55;;;;;;;;;;5068001;28;20482;-66
2022/10/05 03:42:16;;;;;;;11.13;8.00;;;;;;;;;;5072707;28;20349;-67
2022/10/05 03:44:42;;;;;;;11.23;7.35;;;;;;;;;;5071503;28;20536;-66
2022/10/05 03:47:14;;;;;;;13.88;7.95;;;;;;;;;;5072745;28;20032;-66
2022/10/05 03:50:01;;;;;;;13.13;7.82;;;;;;;;;;5072947;28;20048;-67
2022/10/05 03:52:33;;;;;;;13.23;8.02;;;;;;;;;;5072574;28;20140;-66
2022/10/05 03:55:02;;;;;;;14.82;8.27;;;;;;;;;;5068389;28;20083;-67
2022/10/05 03:57:32;;;;;;;12.77;8.07;;;;;;;;;;5080791;28;20506;-66
2022/10/05 04:00:01;;;;;;;12.80;8.35;;;;;;;;;;5070141;28;20028;-67
2022/10/05 04:02:47;;;;;;;14.02;8.43;;;;;;;;;;5058387;28;20445;-66
2022/10/05 04:05:16;;;;;;;13.95;8.10;;;;;;;;;;5057346;28;20139;-66
2022/10/05 04:07:51;;;;;;;18.00;8.13;;;;;;;;;;5066100;28;20051;-66
2022/10/05 04:10:37;;;;;;;13.82;8.55;;;;;;;;;;5068635;28;20040;-67
2022/10/05 04:13:12;;;;;;;13.45;8.48;;;;;;;;;;5068025;28;20079;-66
2022/10/05 04:15:44;;;;;;;13.70;8.20;;;;;;;;;;5061433;28;20558;-67
2022/10/05 04:18:16;;;;;;;11.73;9.05;;;;;;;;;;5067086;28;20077;-67
2022/10/05 04:20:44;;;;;;;14.50;8.68;;;;;;;;;;5069719;28;20039;-66
2022/10/05 04:23:10;;;;;;;11.77;8.20;;;;;;;;;;5074571;28;20515;-66
2022/10/05 04:25:44;;;;;;;17.50;9.05;;;;;;;;;;5070259;28;20127;-67
2022/10/05 04:28:25;;;;;;;14.98;8.82;;;;;;;;;;5081006;28;20394;-67
2022/10/05 04:30:52;;;;;;;17.83;9.02;;;;;;;;;;5072492;28;20490;-66
2022/10/05 04:33:20;;;;;;;16.55;9.50;;;;;;;;;;5071852;28;20495;-66
2022/10/05 04:35:51;;;;;;;16.05;9.52;;;;;;;;;;5071251;28;20490;-67
2022/10/05 04:38:20;;;;;;;15.07;9.15;;;;;;;;;;5082201;28;20033;-67
2022/10/05 04:41:05;;;;;;;13.45;8.82;;;;;;;;;;5072104;28;20028;-67
2022/10/05 04:43:31;;;;;;;15.25;10.13;;;;;;;;;;5080113;28;20036;-67
2022/10/05 04:46:15;;;;;;;15.15;9.77;;;;;;;;;;5071823;28;20041;-66
2022/10/05 04:49:14;;;;;;;16.27;10.38;;;;;;;;;;5072809;28;20037;-66
2022/10/05 04:52:00;;;;;;;17.55;10.00;;;;;;;;;;5055120;28;20052;-67
2022/10/05 04:54:45;;;;;;;18.38;10.23;;;;;;;;;;5059566;28;20075;-67
2022/10/05 04:57:17;;;;;;;15.90;10.70;;;;;;;;;;5069295;28;20036;-66
2022/10/05 05:00:03;;;;;;;19.80;10.40;;;;;;;;;;5070878;28;20036;-66
2022/10/05 05:02:41;;;;;;;15.10;10.90;;;;;;;;;;5069022;28;20044;-67
2022/10/05 05:05:16;;;;;;;15.05;9.38;;;;;;;;;;5071092;28;20295;-66
2022/10/05 05:08:01;;;;;;;17.02;11.18;;;;;;;;;;5072328;28;20410;-67
2022/10/05 05:10:38;;;;;;;16.38;10.73;;;;;;;;;;5070446;28;20045;-66
2022/10/05 05:13:24;;;;;;;17.70;11.18;;;;;;;;;;5077817;28;20047;-67
2022/10/05 05:15:53;;;;;;;17.40;10.65;;;;;;;;;;5031343;28;20048;-67
2022/10/05 05:18:22;;;;;;;19.45;11.65;;;;;;;;;;5074170;28;20044;-67
2022/10/05 05:20:51;;;;;;;16.73;10.75;;;;;;;;;;5070259;28;20490;-67
2022/10/05 05:23:17;;;;;;;18.83;11.27;;;;;;;;;;5069609;28;20119;-67
2022/10/05 05:25:49;;;;;;;18.75;11.20;;;;;;;;;;5070986;28;20246;-66
2022/10/05 05:28:29;;;;;;;15.25;10.73;;;;;;;;;;5073618;28;20131;-67
2022/10/05 05:31:00;;;;;;;16.25;10.63;;;;;;;;;;5068051;28;20064;-67
2022/10/05 05:33:37;;;;;;;16.27;10.88;;;;;;;;;;5070952;28;20124;-67
2022/10/05 05:36:36;;;;;;;18.05;11.52;;;;;;;;;;5070251;28;20573;-66
2022/10/05 05:39:20;;;;;;;17.10;11.13;;;;;;;;;;5020984;28;20510;-66
2022/10/05 05:41:55;;;;;;;20.33;11.93;;;;;;;;;;5062851;28;20254;-67
2022/10/05 05:44:26;;;;;;;16.60;10.45;;;;;;;;;;5069675;28;20155;-67
2022/10/05 05:47:10;;;;;;;16.67;11.40;;;;;;;;;;5070874;28;20040;-67
2022/10/05 05:49:36;;;;;;;19.00;11.80;;;;;;;;;;5065173;28;20040;-67
2022/10/05 05:52:20;;;;;;;17.30;11.32;;;;;;;;;;5068319;28;20563;-67
2022/10/05 05:54:46;;;;;;;17.23;11.20;;;;;;;;;;5066333;28;20036;-66
2022/10/05 05:57:12;;;;;;;17.63;11.30;;;;;;;;;;5070496;28;20102;-66
2022/10/05 05:59:57;;;;;;;18.45;12.32;;;;;;;;;;5068002;28;20035;-66
2022/10/05 06:02:27;;;;;;;14.88;10.85;;;;;;;;;;5065962;28;20060;-67
2022/10/05 06:05:02;;;;;;;18.88;11.57;;;;;;;;;;5069364;28;20052;-66
2022/10/05 06:07:30;;;;;;;17.63;11.27;;;;;;;;;;5058748;28;20127;-66
2022/10/05 06:10:01;;;;;;;20.40;11.77;;;;;;;;;;5062192;28;20041;-67
2022/10/05 06:12:29;;;;;;;17.40;11.88;;;;;;;;;;5065527;28;20048;-67
2022/10/05 06:14:58;;;;;;;18.30;11.57;;;;;;;;;;5069196;28;20039;-67
2022/10/05 06:17:30;;;;;;;16.42;11.05;;;;;;;;;;5067291;28;20041;-68
2022/10/05 06:19:57;;;;;;;16.80;11.07;;;;;;;;;;5067735;28;20043;-68
2022/10/05 06:22:23;;;;;;;18.88;11.80;;;;;;;;;;5068833;28;20070;-68
2022/10/05 06:24:52;;;;;;;16.13;11.10;;;;;;;;;;5069517;28;20588;-68
2022/10/05 06:27:25;;;;;;;18.83;11.70;;;;;;;;;;5059860;28;20037;-67
2022/10/05 06:30:02;;;;;;;18.83;11.10;;;;;;;;;;5068136;28;20044;-67
2022/10/05 06:32:28;;;;;;;18.20;11.68;;;;;;;;;;5067487;28;20048;-67
2022/10/05 06:35:07;;;;;;;17.73;11.65;;;;;;;;;;5070128;28;20394;-68
2022/10/05 06:37:48;;;;;;;16.52;11.80;;;;;;;;;;5066887;28;20041;-67
2022/10/05 06:40:20;;;;;;;18.85;11.55;;;;;;;;;;5072315;28;20139;-69
2022/10/05 06:42:54;;;;;;;15.48;11.10;;;;;;;;;;5068158;28;20071;-67
2022/10/05 06:45:31;;;;;;;14.15;11.13;;;;;;;;;;5071579;28;20397;-67
2022/10/05 06:48:17;;;;;;;16.30;11.48;;;;;;;;;;5072853;28;20041;-67
2022/10/05 06:50:49;;;;;;;16.55;11.02;;;;;;;;;;5072296;28;20124;-67
2022/10/05 06:53:34;;;;;;;13.45;10.82;;;;;;;;;;5071010;28;20044;-67
2022/10/05 06:56:03;;;;;;;18.88;11.52;;;;;;;;;;5067481;28;20072;-67
2022/10/05 06:58:45;;;;;;;15.52;10.55;;;;;;;;;;5073148;28;20097;-67
2022/10/05 07:01:18;;;;;;;15.95;11.32;;;;;;;;;;5073652;28;20037;-67
2022/10/05 07:04:01;;;;;;;14.60;10.25;;;;;;;;;;5078481;28;20072;-67
2022/10/05 07:06:39;;;;;;;16.25;10.30;;;;;;;;;;5076057;28;20040;-67
2022/10/05 07:09:24;;;;;;;16.10;10.20;;;;;;;;;;5070946;28;20037;-67
2022/10/05 07:12:02;;;;;;;14.75;10.18;;;;;;;;;;5069920;28;20040;-68
2022/10/05 07:14:28;;;;;;;13.75;9.70;;;;;;;;;;5069778;28;20043;-68
2022/10/05 07:16:54;;;;;;;15.55;10.20;;;;;;;;;;5071449;28;20311;-68
2022/10/05 07:19:39;;;;;;;17.08;10.43;;;;;;;;;;5071660;28;20029;-67
2022/10/05 07:22:11;;;;;;;15.05;10.20;;;;;;;;;;5069033;28;20296;-68
2022/10/05 07:24:57;;;;;;;13.98;9.80;;;;;;;;;;5068500;28;20522;-67
2022/10/05 07:27:24;;;;;;;13.60;9.73;;;;;;;;;;5074350;28;20044;-67
2022/10/05 07:30:09;;;;;;;15.73;9.70;;;;;;;;;;5073478;28;20043;-67
2022/10/05 07:32:38;;;;;;;15.98;9.48;;;;;;;;;;5054503;28;20391;-67
2022/10/05 07:38:04;;;;;;;15.27;9.70;;;;;;;;;;5071376;28;20114;-68
2022/10/05 07:40:41;;;;;;;13.82;9.63;;;;;;;;;;5073199;28;20051;-67
2022/10/05 07:43:26;;;;;;;14.50;10.18;;;;;;;;;;5073196;28;20101;-67
2022/10/05 07:45:56;;;;;;;16.23;9.80;;;;;;;;;;5074325;28;20044;-67
2022/10/05 07:48:34;;;;;;;16.48;10.18;;;;;;;;;;5072583;28;20044;-67
2022/10/05 07:51:03;;;;;;;13.57;10.00;;;;;;;;;;5071240;28;20047;-67
2022/10/05 07:53:47;;;;;;;13.13;9.25;;;;;;;;;;5068332;28;20193;-68
2022/10/05 07:56:23;;;;;;;15.65;10.20;;;;;;;;;;5073006;28;20040;-68
2022/10/05 07:58:58;;;;;;;14.27;10.40;;;;;;;;;;5069443;28;20044;-68
2022/10/05 08:01:26;;;;;;;14.25;9.80;;;;;;;;;;5064209;28;20048;-67
2022/10/05 08:04:10;;;;;;;15.85;9.90;;;;;;;;;;5067181;28;20577;-68
2022/10/05 08:06:57;;;;;;;13.95;9.98;;;;;;;;;;5062895;28;20029;-67
2022/10/05 08:09:26;;;;;;;14.57;9.70;;;;;;;;;;5064123;28;20041;-67
2022/10/05 08:11:55;;;;;;;13.77;9.60;;;;;;;;;;5064517;28;20120;-67
2022/10/05 08:14:36;;;;;;;12.40;8.90;;;;;;;;;;5067075;28;20036;-67
2022/10/05 08:17:05;;;;;;;14.77;8.88;;;;;;;;;;5070082;28;20036;-67
2022/10/05 08:19:48;;;;;;;14.85;9.25;;;;;;;;;;5075148;28;20494;-68
2022/10/05 08:22:20;;;;;;;14.45;8.60;;;;;;;;;;5071314;28;20036;-67
2022/10/05 08:24:50;;;;;;;11.07;8.50;;;;;;;;;;5069642;28;20098;-67
2022/10/05 08:27:16;;;;;;;12.00;8.73;;;;;;;;;;5070471;28;20110;-67
2022/10/05 08:29:56;;;;;;;13.07;8.70;;;;;;;;;;5067949;28;20501;-67
2022/10/05 08:32:24;;;;;;;10.85;8.00;;;;;;;;;;5065437;28;20342;-67
2022/10/05 08:34:50;;;;;;;13.68;8.50;;;;;;;;;;5067325;28;20048;-67
2022/10/05 08:37:19;;;;;;;11.13;8.18;;;;;;;;;;5066527;28;20501;-66
2022/10/05 08:40:04;;;;;;;11.65;8.13;;;;;;;;;;5062976;28;20116;-67
2022/10/05 08:42:48;;;;;;;11.63;8.07;;;;;;;;;;5064354;28;20110;-67
2022/10/05 08:45:33;;;;;;;11.60;8.00;;;;;;;;;;5062272;28;20097;-68
2022/10/05 08:48:05;;;;;;;12.15;8.32;;;;;;;;;;5070039;28;20068;-67
2022/10/05 08:50:31;;;;;;;12.85;8.60;;;;;;;;;;5072542;28;20494;-67
2022/10/05 08:53:03;;;;;;;11.57;8.00;;;;;;;;;;5076108;28;21882;-67
2022/10/05 08:55:49;;;;;;;9.48;7.75;;;;;;;;;;5068693;28;20036;-66
2022/10/05 08:58:25;;;;;;;10.85;7.68;;;;;;;;;;5040257;28;20128;-67
2022/10/05 09:00:51;;;;;;;11.85;8.10;;;;;;;;;;5069689;28;20478;-67
2022/10/05 09:03:36;;;;;;;12.70;7.63;;;;;;;;;;5066144;28;20093;-67
2022/10/05 09:06:24;;;;;;;9.20;7.20;;;;;;;;;;5068553;28;20033;-67
2022/10/05 09:08:53;;;;;;;10.32;7.32;;;;;;;;;;5064887;28;20097;-67
2022/10/05 09:11:34;;;;;;;12.00;7.30;;;;;;;;;;5063421;28;20058;-67
2022/10/05 09:14:19;;;;;;;8.43;6.68;;;;;;;;;;5068433;28;20043;-68
2022/10/05 09:16:56;;;;;;;8.70;6.60;;;;;;;;;;5064235;28;20044;-67
2022/10/05 09:19:38;;;;;;;9.00;6.65;;;;;;;;;;5077382;28;20094;-66
2022/10/05 09:22:14;;;;;;;8.80;6.43;;;;;;;;;;5071813;28;20045;-67
2022/10/05 09:24:45;;;;;;;7.97;6.30;;;;;;;;;;5067632;28;20044;-66
2022/10/05 09:27:14;;;;;;;7.43;5.97;;;;;;;;;;5071460;28;20040;-67
2022/10/05 09:29:40;;;;;;;9.63;5.63;;;;;;;;;;5071454;28;20049;-66
2022/10/05 09:32:12;;;;;;;8.07;6.18;;;;;;;;;;5072055;28;20036;-66
2022/10/05 09:34:48;;;;;;;10.50;5.57;;;;;;;;;;5071828;28;20040;-66
2022/10/05 09:37:32;;;;;;;7.45;5.82;;;;;;;;;;5069326;28;20040;-66
2022/10/05 09:40:07;;;;;;;10.10;6.43;;;;;;;;;;5066298;28;20044;-65
2022/10/05 09:42:33;;;;;;;9.43;6.10;;;;;;;;;;5058912;28;20052;-66
2022/10/05 09:45:12;;;;;;;8.95;6.13;;;;;;;;;;5066402;28;20040;-66
2022/10/05 09:47:58;;;;;;;8.45;5.85;;;;;;;;;;5063372;28;20048;-66
2022/10/05 09:50:40;;;;;;;7.35;5.90;;;;;;;;;;5071352;28;20040;-66
2022/10/05 09:53:15;;;;;;;9.38;6.05;;;;;;;;;;5060186;28;20040;-66
2022/10/05 09:56:10;;;;;;;7.38;5.43;;;;;;;;;;5063654;28;20055;-66
2022/10/05 09:58:44;;;;;;;8.55;5.90;;;;;;;;;;5059238;28;20105;-67
2022/10/05 10:01:20;;;;;;;7.28;5.75;;;;;;;;;;5071458;28;20048;-66
2022/10/05 10:03:55;;;;;;;9.55;6.43;;;;;;;;;;5071449;28;20047;-66
2022/10/05 10:06:30;;;;;;;7.28;6.03;;;;;;;;;;5061950;28;20529;-66
2022/10/05 10:09:11;;;;;;;8.18;6.28;;;;;;;;;;5071287;28;20044;-66
2022/10/05 10:11:50;;;;;;;7.85;6.07;;;;;;;;;;5061743;28;20045;-66
2022/10/05 10:14:16;;;;;;;7.82;6.18;;;;;;;;;;5071283;28;20051;-65
2022/10/05 10:17:14;;;;;;;7.50;6.28;;;;;;;;;;5069905;28;20049;-66
2022/10/05 10:19:59;;;;;;;8.35;6.20;;;;;;;;;;5031264;28;20081;-66
2022/10/05 10:22:42;;;;;;;10.05;6.22;;;;;;;;;;5070550;28;20098;-66
2022/10/05 10:25:41;;;;;;;8.25;6.50;;;;;;;;;;5066620;28;20037;-66
2022/10/05 10:28:08;;;;;;;7.70;6.40;;;;;;;;;;5067736;28;20486;-67
2022/10/05 10:30:36;;;;;;;9.95;6.55;;;;;;;;;;5071255;28;20048;-67
2022/10/05 10:33:21;;;;;;;7.35;6.05;;;;;;;;;;5070520;28;20076;-66
2022/10/05 10:35:56;;;;;;;8.60;6.72;;;;;;;;;;5059016;28;20036;-67
2022/10/05 10:38:27;;;;;;;6.57;5.85;;;;;;;;;;5067598;28;20638;-67
2022/10/05 10:41:02;;;;;;;6.45;5.50;;;;;;;;;;5062191;28;20386;-67
2022/10/05 10:43:28;;;;;;;7.28;5.60;;;;;;;;;;5069897;28;20040;-67
2022/10/05 10:45:54;;;;;;;7.32;5.85;;;;;;;;;;5070017;28;20047;-68
2022/10/05 10:48:30;;;;;;;6.55;5.85;;;;;;;;;;5070719;28;20498;-66
2022/10/05 10:50:59;;;;;;;6.18;5.20;;;;;;;;;;5067918;28;20184;-67
2022/10/05 10:53:49;;;;;;;6.30;4.95;;;;;;;;;;5069771;28;20063;-66
2022/10/05 10:56:34;;;;;;;6.72;4.93;;;;;;;;;;5071618;28;20041;-66
2022/10/05 10:59:02;;;;;;;6.28;4.65;;;;;;;;;;5070498;28;20037;-65
2022/10/05 11:01:28;;;;;;;9.27;4.55;;;;;;;;;;5070727;28;20363;-66
2022/10/05 11:04:07;;;;;;;7.18;4.57;;;;;;;;;;5069834;28;20143;-66
2022/10/05 11:06:53;;;;;;;7.47;4.00;;;;;;;;;;5066721;28;20471;-66
2022/10/05 11:09:19;;;;;;;7.18;3.60;;;;;;;;;;5069334;28;20044;-66
2022/10/05 11:12:04;;;;;;;5.68;3.45;;;;;;;;;;5070283;28;20045;-67
2022/10/05 11:14:33;;;;;;;5.80;3.60;;;;;;;;;;5070821;28;20115;-66
2022/10/05 11:17:08;;;;;;;5.15;3.72;;;;;;;;;;5070668;28;20036;-66
2022/10/05 11:19:46;;;;;;;5.72;3.40;;;;;;;;;;5067231;28;20074;-66
2022/10/05 11:22:30;;;;;;;4.93;3.92;;;;;;;;;;5070398;28;20044;-66
2022/10/05 11:24:59;;;;;;;5.68;3.88;;;;;;;;;;5069905;28;20072;-66
2022/10/05 11:27:41;;;;;;;5.03;3.70;;;;;;;;;;5073611;28;20383;-66
2022/10/05 11:30:10;;;;;;;4.60;3.55;;;;;;;;;;5071492;28;20044;-66
2022/10/05 11:33:03;;;;;;;4.80;3.85;;;;;;;;;;5074334;28;20041;-66
2022/10/05 11:35:48;;;;;;;5.55;3.88;;;;;;;;;;5071713;28;20047;-66
2022/10/05 11:38:33;;;;;;;7.82;4.38;;;;;;;;;;5089545;28;20501;-66
2022/10/05 11:41:17;;;;;;;5.93;3.70;;;;;;;;;;5069978;28;20037;-66
2022/10/05 11:43:46;;;;;;;5.65;3.97;;;;;;;;;;5059457;28;20533;-66
2022/10/05 11:46:21;;;;;;;8.35;3.78;;;;;;;;;;5069706;28;20040;-66
2022/10/05 11:49:06;;;;;;;5.40;3.58;;;;;;;;;;5072553;28;20053;-66
2022/10/05 11:51:50;;;;;;;4.07;3.67;;;;;;;;;;5067915;28;20075;-66
2022/10/05 11:54:22;;;;;;;5.03;3.80;;;;;;;;;;5073945;28;20090;-66
2022/10/05 11:56:56;;;;;;;6.22;3.95;;;;;;;;;;5074027;28;20040;-66
2022/10/05 11:59:22;;;;;;;8.13;3.92;;;;;;;;;;5066609;28;20150;-66
2022/10/05 12:02:01;;;;;;;6.68;3.65;;;;;;;;;;5073444;28;20073;-66
2022/10/05 12:04:42;;;;;;;6.80;4.07;;;;;;;;;;5063893;28;20079;-66
2022/10/05 12:07:08;;;;;;;4.72;3.60;;;;;;;;;;5071213;28;20047;-66
2022/10/05 12:12:39;;;;;;;5.72;3.40;;;;;;;;;;5073248;28;20056;-66
2022/10/05 12:15:16;;;;;;;5.55;3.47;;;;;;;;;;5071948;28;20040;-66
2022/10/05 12:17:50;;;;;;;6.80;3.20;;;;;;;;;;5066335;28;20079;-66
2022/10/05 12:20:19;;;;;;;4.75;3.45;;;;;;;;;;5072293;28;20051;-66
2022/10/05 12:22:52;;;;;;;5.60;4.18;;;;;;;;;;5073155;28;20467;-66
2022/10/05 12:25:32;;;;;;;4.55;3.47;;;;;;;;;;5071124;28;20132;-66
2022/10/05 12:28:03;;;;;;;4.90;3.70;;;;;;;;;;5072144;28;20048;-67
2022/10/05 12:30:47;;;;;;;4.70;3.40;;;;;;;;;;5071866;28;20045;-66
2022/10/05 12:33:18;;;;;;;6.35;3.35;;;;;;;;;;5061083;28;20033;-66
2022/10/05 12:35:44;;;;;;;5.73;4.00;;;;;;;;;;5070615;28;20408;-66
2022/10/05 12:38:28;;;;;;;4.90;3.55;;;;;;;;;;5069229;28;20361;-66
2022/10/05 12:40:54;;;;;;;6.03;3.70;;;;;;;;;;5071379;28;20032;-66
2022/10/05 12:43:39;;;;;;;6.13;3.67;;;;;;;;;;5067326;28;20119;-66
2022/10/05 12:46:08;;;;;;;4.65;3.50;;;;;;;;;;5062433;28;20546;-66
2022/10/05 12:48:51;;;;;;;10.93;3.63;;;;;;;;;;5065782;28;20040;-66
2022/10/05 12:51:36;;;;;;;5.50;3.30;;;;;;;;;;5069799;28;20214;-66
2022/10/05 12:54:08;;;;;;;6.03;3.20;;;;;;;;;;5072475;28;20117;-66
2022/10/05 12:56:53;;;;;;;5.68;3.50;;;;;;;;;;5069668;28;20037;-66
2022/10/05 12:59:22;;;;;;;5.20;3.35;;;;;;;;;;5071873;28;20041;-66
2022/10/05 13:01:48;;;;;;;4.03;3.20;;;;;;;;;;5071233;28;20516;-66
2022/10/05 13:04:27;;;;;;;6.38;3.20;;;;;;;;;;5062972;28;20037;-67
2022/10/05 13:07:03;;;;;;;6.78;3.30;;;;;;;;;;5070120;28;20048;-67
2022/10/05 13:09:48;;;;;;;4.10;2.97;;;;;;;;;;5070872;28;20036;-67
2022/10/05 13:12:34;;;;;;;8.02;3.25;;;;;;;;;;5069577;28;20076;-67
2022/10/05 13:15:06;;;;;;;5.93;3.17;;;;;;;;;;5063508;28;20037;-67
2022/10/05 13:17:37;;;;;;;5.15;3.20;;;;;;;;;;5064923;28;20049;-67
2022/10/05 13:20:12;;;;;;;4.85;2.70;;;;;;;;;;5067775;28;20047;-67
2022/10/05 13:22:52;;;;;;;3.75;2.90;;;;;;;;;;5057142;28;20613;-67
2022/10/05 13:25:44;;;;;;;6.50;3.20;;;;;;;;;;5065488;28;20569;-67
2022/10/05 13:28:14;;;;;;;4.38;2.88;;;;;;;;;;5030696;28;20408;-67
2022/10/05 13:30:44;;;;;;;4.70;2.95;;;;;;;;;;5060995;28;20059;-66
2022/10/05 13:33:13;;;;;;;3.40;2.80;;;;;;;;;;5059797;28;20184;-65
2022/10/05 13:35:43;;;;;;;6.13;2.70;;;;;;;;;;5071973;28;20414;-67
2022/10/05 13:38:12;;;;;;;5.20;2.65;;;;;;;;;;5070766;28;20170;-67
2022/10/05 13:40:48;;;;;;;5.03;2.65;;;;;;;;;;5069832;28;20515;-67
2022/10/05 13:43:29;;;;;;;4.80;3.15;;;;;;;;;;5063751;28;20117;-67
2022/10/05 13:46:03;;;;;;;4.35;2.83;;;;;;;;;;5069131;28;20044;-67
2022/10/05 13:48:55;;;;;;;6.35;2.90;;;;;;;;;;5068820;28;20047;-67
2022/10/05 13:51:23;;;;;;;5.43;2.72;;;;;;;;;;5068437;28;20029;-67
2022/10/05 13:54:07;;;;;;;3.63;2.45;;;;;;;;;;5063249;28;20064;-67
2022/10/05 13:56:37;;;;;;;7.53;2.88;;;;;;;;;;5063441;28;20383;-67
2022/10/05 13:59:21;;;;;;;5.03;2.80;;;;;;;;;;5059553;28;20426;-68
2022/10/05 14:01:50;;;;;;;4.47;2.50;;;;;;;;;;5069387;28;20040;-67
2022/10/05 14:04:19;;;;;;;5.03;3.10;;;;;;;;;;5064475;28;20060;-66
2022/10/05 14:06:47;;;;;;;4.70;3.35;;;;;;;;;;5065650;28;20123;-67
2022/10/05 14:09:26;;;;;;;4.82;3.20;;;;;;;;;;5066568;28;20076;-67
2022/10/05 14:12:04;;;;;;;6.10;2.95;;;;;;;;;;5070755;28;20040;-67
2022/10/05 14:14:32;;;;;;;5.32;3.33;;;;;;;;;;5066189;28;20461;-67
2022/10/05 14:17:00;;;;;;;3.65;2.90;;;;;;;;;;5068708;28;20040;-67
2022/10/05 14:19:30;;;;;;;5.97;2.63;;;;;;;;;;5068082;28;20087;-67
2022/10/05 14:21:56;;;;;;;5.00;3.20;;;;;;;;;;5064963;28;20045;-68
2022/10/05 14:24:25;;;;;;;5.28;3.00;;;;;;;;;;5064334;28;20097;-66
2022/10/05 14:26:53;;;;;;;6.97;2.90;;;;;;;;;;5064898;28;20037;-67
2022/10/05 14:29:23;;;;;;;5.88;3.20;;;;;;;;;;5064414;28;20045;-67
2022/10/05 14:32:02;;;;;;;4.60;2.60;;;;;;;;;;5067089;28;20051;-66
2022/10/05 14:34:36;;;;;;;4.28;3.20;;;;;;;;;;5063082;28;20287;-66
2022/10/05 14:37:19;;;;;;;4.78;2.80;;;;;;;;;;5068460;28;20040;-68
2022/10/05 14:39:46;;;;;;;6.28;3.10;;;;;;;;;;5064162;28;20040;-66
2022/10/05 14:42:17;;;;;;;4.93;3.10;;;;;;;;;;5064854;28;20067;-66
2022/10/05 14:44:44;;;;;;;6.03;2.88;;;;;;;;;;5066614;28;20396;-66
2022/10/05 14:47:18;;;;;;;5.03;3.55;;;;;;;;;;5062490;28;20091;-66
2022/10/05 14:50:09;;;;;;;7.18;3.15;;;;;;;;;;5064877;28;20051;-66
2022/10/05 14:52:37;;;;;;;5.38;3.90;;;;;;;;;;5057737;28;20051;-67
2022/10/05 14:55:21;;;;;;;5.32;3.83;;;;;;;;;;5064964;28;20040;-67
2022/10/05 14:57:57;;;;;;;4.55;3.10;;;;;;;;;;5065382;28;20068;-67
2022/10/05 15:00:24;;;;;;;6.47;2.92;;;;;;;;;;5065127;28;20060;-67
2022/10/05 15:03:02;;;;;;;5.90;3.40;;;;;;;;;;5066841;28;20575;-67
2022/10/05 15:05:30;;;;;;;5.75;3.80;;;;;;;;;;5070535;28;20041;-67
2022/10/05 15:08:01;;;;;;;5.40;3.33;;;;;;;;;;5074460;28;20045;-67
2022/10/05 15:10:36;;;;;;;5.05;3.05;;;;;;;;;;5074613;28;20041;-67
2022/10/05 15:13:08;;;;;;;4.60;3.08;;;;;;;;;;5071519;28;20050;-66
2022/10/05 15:16:00;;;;;;;6.07;2.80;;;;;;;;;;5064842;28;20040;-66
2022/10/05 15:18:47;;;;;;;4.85;2.70;;;;;;;;;;5068214;28;20048;-67
2022/10/05 15:21:27;;;;;;;5.43;3.30;;;;;;;;;;5068307;28;20048;-67
2022/10/05 15:23:56;;;;;;;6.45;3.00;;;;;;;;;;5070871;28;20050;-67